createdAt,value
2018-10-05T00:00:28.396Z,20.40
2018-10-05T00:01:05.896Z,20.40
2018-10-05T00:01:43.142Z,20.40
2018-10-05T00:02:20.434Z,20.40
2018-10-05T00:02:57.886Z,20.40
2018-10-05T00:03:35.396Z,20.40
2018-10-05T00:04:12.873Z,20.30
2018-10-05T00:04:50.348Z,20.40
2018-10-05T00:05:27.554Z,20.40
2018-10-05T00:06:04.848Z,20.40
2018-10-05T00:06:42.203Z,20.40
2018-10-05T00:07:19.401Z,20.30
2018-10-05T00:07:56.765Z,20.40
2018-10-05T00:08:34.249Z,20.30
2018-10-05T00:09:11.794Z,20.40
2018-10-05T00:09:49.335Z,20.30
2018-10-05T00:10:26.801Z,20.30
2018-10-05T00:11:04.096Z,20.30
2018-10-05T00:11:41.502Z,20.30
2018-10-05T00:12:18.679Z,20.40
2018-10-05T00:12:56.079Z,20.40
2018-10-05T00:13:33.515Z,20.30
2018-10-05T00:14:10.857Z,20.30
2018-10-05T00:14:48.534Z,20.30
2018-10-05T00:15:25.838Z,20.40
2018-10-05T00:16:03.141Z,20.40
2018-10-05T00:16:40.645Z,20.40
2018-10-05T00:17:18.114Z,20.30
2018-10-05T00:17:55.426Z,20.30
2018-10-05T00:18:32.866Z,20.40
2018-10-05T00:19:10.155Z,20.40
2018-10-05T00:19:47.478Z,20.30
2018-10-05T00:20:24.858Z,20.30
2018-10-05T00:21:02.391Z,20.40
2018-10-05T00:21:39.711Z,20.30
2018-10-05T00:22:17.245Z,20.40
2018-10-05T00:22:54.715Z,20.40
2018-10-05T00:23:33.060Z,20.30
2018-10-05T00:24:10.611Z,20.30
2018-10-05T00:24:48.108Z,20.30
2018-10-05T00:25:25.606Z,20.30
2018-10-05T00:26:03.116Z,20.30
2018-10-05T00:26:40.585Z,20.40
2018-10-05T00:27:18.117Z,20.30
2018-10-05T00:27:55.517Z,20.30
2018-10-05T00:28:32.995Z,20.40
2018-10-05T00:29:10.576Z,20.30
2018-10-05T00:29:47.979Z,20.30
2018-10-05T00:30:25.236Z,20.30
2018-10-05T00:31:02.707Z,20.30
2018-10-05T00:31:43.738Z,20.30
2018-10-05T00:32:21.284Z,20.30
2018-10-05T00:32:58.790Z,20.30
2018-10-05T00:33:36.346Z,20.30
2018-10-05T00:34:13.770Z,20.30
2018-10-05T00:34:51.309Z,20.30
2018-10-05T00:35:28.738Z,20.30
2018-10-05T00:36:05.956Z,20.30
2018-10-05T00:37:24.649Z,20.30
2018-10-05T00:38:02.248Z,20.30
2018-10-05T00:38:39.771Z,20.30
2018-10-05T00:39:17.058Z,20.30
2018-10-05T00:39:54.567Z,20.30
2018-10-05T00:40:31.992Z,20.30
2018-10-05T00:41:09.568Z,20.30
2018-10-05T00:41:46.978Z,20.30
2018-10-05T00:42:24.423Z,20.30
2018-10-05T00:43:01.749Z,20.30
2018-10-05T00:43:39.075Z,20.30
2018-10-05T00:44:16.308Z,20.30
2018-10-05T00:44:53.588Z,20.30
2018-10-05T00:45:30.990Z,20.30
2018-10-05T00:46:08.219Z,20.30
2018-10-05T00:46:45.838Z,20.30
2018-10-05T00:47:23.257Z,20.30
2018-10-05T00:48:00.761Z,20.30
2018-10-05T00:48:38.127Z,20.30
2018-10-05T00:49:15.688Z,20.30
2018-10-05T00:49:53.100Z,20.30
2018-10-05T00:50:30.465Z,20.30
2018-10-05T00:51:07.889Z,20.40
2018-10-05T00:51:45.416Z,20.30
2018-10-05T00:52:22.935Z,20.30
2018-10-05T00:53:00.302Z,20.30
2018-10-05T00:53:37.873Z,20.30
2018-10-05T00:54:15.449Z,20.30
2018-10-05T00:54:52.859Z,20.30
2018-10-05T00:55:30.334Z,20.30
2018-10-05T00:56:07.612Z,20.30
2018-10-05T00:56:44.856Z,20.30
2018-10-05T00:57:22.329Z,20.30
2018-10-05T00:57:59.928Z,20.30
2018-10-05T00:58:37.308Z,20.30
2018-10-05T00:59:14.580Z,20.40
2018-10-05T00:59:52.037Z,20.30
2018-10-05T01:00:29.589Z,20.40
2018-10-05T01:01:07.067Z,20.30
2018-10-05T01:01:44.769Z,20.30
2018-10-05T01:02:22.262Z,20.30
2018-10-05T01:02:59.550Z,20.30
2018-10-05T01:03:36.879Z,20.30
2018-10-05T01:04:14.089Z,20.30
2018-10-05T01:04:51.251Z,20.30
2018-10-05T01:05:28.828Z,20.30
2018-10-05T01:06:06.449Z,20.30
2018-10-05T01:06:43.749Z,20.30
2018-10-05T01:07:21.008Z,20.30
2018-10-05T01:07:58.468Z,20.30
2018-10-05T01:08:36.062Z,20.30
2018-10-05T01:09:13.620Z,20.30
2018-10-05T01:09:51.004Z,20.30
2018-10-05T01:10:28.491Z,20.30
2018-10-05T01:11:05.725Z,20.30
2018-10-05T01:11:43.208Z,20.30
2018-10-05T01:12:20.566Z,20.30
2018-10-05T01:12:57.849Z,20.30
2018-10-05T01:13:35.319Z,20.30
2018-10-05T01:14:12.819Z,20.30
2018-10-05T01:14:50.320Z,20.30
2018-10-05T01:15:27.942Z,20.30
2018-10-05T01:16:05.319Z,20.30
2018-10-05T01:16:42.820Z,20.30
2018-10-05T01:17:23.711Z,20.30
2018-10-05T01:18:01.179Z,20.30
2018-10-05T01:18:38.680Z,20.30
2018-10-05T01:19:16.030Z,20.30
2018-10-05T01:19:53.443Z,20.30
2018-10-05T01:20:30.881Z,20.30
2018-10-05T01:21:08.053Z,20.30
2018-10-05T01:21:45.280Z,20.30
2018-10-05T01:22:22.690Z,20.30
2018-10-05T01:23:00.159Z,20.30
2018-10-05T01:23:37.668Z,20.30
2018-10-05T01:24:15.154Z,20.30
2018-10-05T01:24:52.695Z,20.30
2018-10-05T01:25:30.200Z,20.30
2018-10-05T01:26:07.679Z,20.30
2018-10-05T01:26:45.079Z,20.30
2018-10-05T01:27:22.531Z,20.30
2018-10-05T01:27:59.951Z,20.30
2018-10-05T01:28:37.222Z,20.30
2018-10-05T01:29:14.678Z,20.30
2018-10-05T01:29:52.039Z,20.30
2018-10-05T01:30:29.348Z,20.30
2018-10-05T01:31:06.910Z,20.30
2018-10-05T01:31:44.359Z,20.30
2018-10-05T01:32:21.592Z,20.30
2018-10-05T01:32:58.805Z,20.30
2018-10-05T01:33:36.170Z,20.30
2018-10-05T01:34:13.720Z,20.30
2018-10-05T01:34:51.290Z,20.30
2018-10-05T01:35:28.685Z,20.30
2018-10-05T01:36:06.240Z,20.30
2018-10-05T01:36:43.609Z,20.30
2018-10-05T01:37:21.006Z,20.30
2018-10-05T01:37:58.232Z,20.30
2018-10-05T01:38:35.509Z,20.30
2018-10-05T01:39:12.716Z,20.30
2018-10-05T01:39:50.177Z,20.30
2018-10-05T01:40:27.573Z,20.30
2018-10-05T01:41:46.935Z,20.30
2018-10-05T01:42:24.490Z,20.30
2018-10-05T01:43:01.909Z,20.30
2018-10-05T01:43:39.369Z,20.30
2018-10-05T01:44:16.940Z,20.30
2018-10-05T01:44:54.412Z,20.30
2018-10-05T01:45:31.732Z,20.30
2018-10-05T01:46:08.929Z,20.30
2018-10-05T01:46:49.564Z,20.30
2018-10-05T01:47:27.005Z,20.30
2018-10-05T01:48:04.493Z,20.30
2018-10-05T01:48:41.712Z,20.30
2018-10-05T01:49:18.950Z,20.30
2018-10-05T01:49:56.209Z,20.30
2018-10-05T01:50:33.492Z,20.30
2018-10-05T01:51:11.033Z,20.30
2018-10-05T01:51:52.334Z,20.30
2018-10-05T01:52:29.770Z,20.30
2018-10-05T01:53:07.200Z,20.30
2018-10-05T01:53:44.797Z,20.30
2018-10-05T01:54:22.035Z,20.30
2018-10-05T01:54:59.316Z,20.30
2018-10-05T01:55:36.830Z,20.30
2018-10-05T01:56:14.190Z,20.30
2018-10-05T01:57:35.082Z,20.30
2018-10-05T01:58:12.535Z,20.30
2018-10-05T01:58:49.801Z,20.30
2018-10-05T01:59:27.019Z,20.30
2018-10-05T02:00:04.268Z,20.30
2018-10-05T02:00:41.511Z,20.30
2018-10-05T02:01:19.120Z,20.30
2018-10-05T02:02:37.123Z,20.30
2018-10-05T02:03:14.595Z,20.30
2018-10-05T02:03:52.162Z,20.30
2018-10-05T02:04:29.460Z,20.30
2018-10-05T02:05:06.943Z,20.30
2018-10-05T02:05:44.440Z,20.30
2018-10-05T02:06:21.908Z,20.30
2018-10-05T02:06:59.353Z,20.30
2018-10-05T02:07:39.748Z,20.30
2018-10-05T02:08:16.952Z,20.30
2018-10-05T02:08:54.182Z,20.30
2018-10-05T02:09:31.530Z,20.30
2018-10-05T02:10:08.893Z,20.30
2018-10-05T02:10:46.334Z,20.30
2018-10-05T02:11:23.699Z,20.30
2018-10-05T02:12:00.931Z,20.30
2018-10-05T02:13:21.161Z,20.30
2018-10-05T02:13:58.589Z,20.30
2018-10-05T02:14:35.802Z,20.30
2018-10-05T02:15:13.010Z,20.30
2018-10-05T02:15:50.215Z,20.30
2018-10-05T02:16:27.437Z,20.30
2018-10-05T02:17:04.911Z,20.30
2018-10-05T02:17:46.260Z,20.30
2018-10-05T02:18:23.691Z,20.30
2018-10-05T02:19:00.890Z,20.30
2018-10-05T02:19:38.116Z,20.30
2018-10-05T02:20:15.599Z,20.30
2018-10-05T02:20:53.037Z,20.30
2018-10-05T02:21:30.311Z,20.30
2018-10-05T02:22:07.790Z,20.30
2018-10-05T02:23:28.535Z,20.30
2018-10-05T02:24:05.982Z,20.30
2018-10-05T02:24:43.583Z,20.30
2018-10-05T02:25:20.819Z,20.30
2018-10-05T02:25:58.219Z,20.30
2018-10-05T02:26:35.454Z,20.30
2018-10-05T02:27:12.750Z,20.30
2018-10-05T02:28:31.460Z,20.30
2018-10-05T02:29:08.846Z,20.30
2018-10-05T02:29:46.171Z,20.30
2018-10-05T02:30:23.562Z,20.30
2018-10-05T02:31:01.048Z,20.30
2018-10-05T02:31:38.629Z,20.30
2018-10-05T02:32:16.129Z,20.30
2018-10-05T02:32:53.633Z,20.30
2018-10-05T02:33:31.079Z,20.30
2018-10-05T02:34:08.585Z,20.30
2018-10-05T02:34:46.028Z,20.30
2018-10-05T02:35:23.234Z,20.30
2018-10-05T02:36:00.567Z,20.30
2018-10-05T02:36:38.090Z,20.30
2018-10-05T02:37:15.610Z,20.30
2018-10-05T02:37:53.160Z,20.30
2018-10-05T02:38:30.654Z,20.30
2018-10-05T02:39:08.281Z,20.30
2018-10-05T02:39:45.851Z,20.30
2018-10-05T02:40:23.230Z,20.30
2018-10-05T02:41:00.581Z,20.30
2018-10-05T02:41:38.140Z,20.30
2018-10-05T02:42:15.651Z,20.30
2018-10-05T02:42:53.050Z,20.30
2018-10-05T02:43:30.570Z,20.30
2018-10-05T02:44:08.102Z,20.30
2018-10-05T02:44:45.563Z,20.30
2018-10-05T02:45:23.132Z,20.30
2018-10-05T02:46:04.373Z,20.30
2018-10-05T02:46:41.692Z,20.30
2018-10-05T02:47:19.132Z,20.30
2018-10-05T02:47:56.490Z,20.30
2018-10-05T02:48:33.725Z,20.30
2018-10-05T02:49:11.210Z,20.30
2018-10-05T02:49:48.633Z,20.30
2018-10-05T02:50:26.065Z,20.30
2018-10-05T02:51:03.558Z,20.30
2018-10-05T02:51:41.159Z,20.30
2018-10-05T02:52:18.442Z,20.30
2018-10-05T02:52:55.770Z,20.30
2018-10-05T02:53:33.170Z,20.30
2018-10-05T02:54:10.691Z,20.30
2018-10-05T02:54:48.126Z,20.30
2018-10-05T02:55:25.590Z,20.30
2018-10-05T02:56:03.088Z,20.30
2018-10-05T02:56:40.604Z,20.30
2018-10-05T02:57:17.820Z,20.30
2018-10-05T02:57:55.189Z,20.30
2018-10-05T02:58:32.490Z,20.30
2018-10-05T02:59:09.680Z,20.30
2018-10-05T02:59:47.010Z,20.30
2018-10-05T03:00:24.454Z,20.30
2018-10-05T03:01:01.956Z,20.30
2018-10-05T03:01:39.228Z,20.30
2018-10-05T03:02:16.678Z,20.30
2018-10-05T03:02:53.885Z,20.30
2018-10-05T03:03:31.088Z,20.30
2018-10-05T03:04:08.590Z,20.30
2018-10-05T03:04:45.822Z,20.30
2018-10-05T03:05:23.300Z,20.30
2018-10-05T03:06:00.712Z,20.30
2018-10-05T03:06:37.996Z,20.30
2018-10-05T03:07:15.469Z,20.30
2018-10-05T03:07:52.884Z,20.30
2018-10-05T03:08:30.420Z,20.30
2018-10-05T03:09:07.854Z,20.30
2018-10-05T03:09:45.180Z,20.30
2018-10-05T03:10:22.559Z,20.30
2018-10-05T03:11:00.079Z,20.30
2018-10-05T03:11:37.340Z,20.30
2018-10-05T03:12:14.760Z,20.30
2018-10-05T03:12:52.188Z,20.30
2018-10-05T03:13:29.638Z,20.20
2018-10-05T03:14:07.110Z,20.30
2018-10-05T03:14:44.568Z,20.30
2018-10-05T03:15:22.029Z,20.30
2018-10-05T03:15:59.529Z,20.20
2018-10-05T03:16:36.979Z,20.30
2018-10-05T03:17:14.372Z,20.30
2018-10-05T03:17:51.838Z,20.20
2018-10-05T03:18:29.344Z,20.30
2018-10-05T03:19:06.882Z,20.20
2018-10-05T03:19:44.315Z,20.30
2018-10-05T03:20:21.899Z,20.30
2018-10-05T03:20:59.355Z,20.20
2018-10-05T03:21:36.764Z,20.30
2018-10-05T03:22:14.131Z,20.30
2018-10-05T03:22:51.534Z,20.20
2018-10-05T03:23:28.896Z,20.20
2018-10-05T03:24:06.313Z,20.30
2018-10-05T03:24:43.591Z,20.30
2018-10-05T03:25:20.836Z,20.20
2018-10-05T03:25:58.179Z,20.30
2018-10-05T03:26:35.698Z,20.20
2018-10-05T03:27:13.218Z,20.30
2018-10-05T03:27:50.577Z,20.20
2018-10-05T03:28:28.029Z,20.30
2018-10-05T03:29:05.259Z,20.20
2018-10-05T03:29:42.484Z,20.20
2018-10-05T03:30:19.798Z,20.20
2018-10-05T03:30:57.211Z,20.20
2018-10-05T03:31:34.574Z,20.20
2018-10-05T03:32:12.071Z,20.20
2018-10-05T03:32:49.327Z,20.30
2018-10-05T03:33:26.768Z,20.20
2018-10-05T03:34:04.014Z,20.30
2018-10-05T03:34:41.442Z,20.30
2018-10-05T03:35:18.861Z,20.30
2018-10-05T03:35:56.230Z,20.20
2018-10-05T03:36:33.504Z,20.30
2018-10-05T03:37:10.971Z,20.30
2018-10-05T03:37:48.283Z,20.20
2018-10-05T03:38:25.636Z,20.20
2018-10-05T03:39:03.156Z,20.20
2018-10-05T03:39:40.647Z,20.20
2018-10-05T03:40:18.191Z,20.20
2018-10-05T03:40:55.710Z,20.30
2018-10-05T03:41:33.052Z,20.20
2018-10-05T03:42:10.338Z,20.20
2018-10-05T03:42:47.678Z,20.20
2018-10-05T03:43:24.907Z,20.20
2018-10-05T03:44:02.451Z,20.20
2018-10-05T03:44:39.741Z,20.30
2018-10-05T03:45:17.090Z,20.20
2018-10-05T03:45:58.022Z,20.20
2018-10-05T03:46:35.248Z,20.20
2018-10-05T03:47:12.577Z,20.20
2018-10-05T03:47:49.948Z,20.20
2018-10-05T03:48:27.442Z,20.30
2018-10-05T03:49:04.998Z,20.20
2018-10-05T03:49:42.325Z,20.20
2018-10-05T03:50:19.801Z,20.20
2018-10-05T03:51:39.879Z,20.20
2018-10-05T03:52:17.389Z,20.20
2018-10-05T03:52:54.910Z,20.30
2018-10-05T03:53:32.332Z,20.20
2018-10-05T03:54:09.539Z,20.20
2018-10-05T03:54:46.769Z,20.30
2018-10-05T03:55:23.930Z,20.20
2018-10-05T03:56:01.407Z,20.20
2018-10-05T03:56:42.259Z,20.20
2018-10-05T03:57:19.698Z,20.30
2018-10-05T03:57:57.109Z,20.20
2018-10-05T03:58:34.332Z,20.20
2018-10-05T03:59:11.793Z,20.30
2018-10-05T03:59:49.300Z,20.20
2018-10-05T04:00:26.732Z,20.20
2018-10-05T04:01:04.213Z,20.20
2018-10-05T04:01:44.863Z,20.20
2018-10-05T04:02:22.139Z,20.20
2018-10-05T04:02:59.560Z,20.30
2018-10-05T04:03:36.838Z,20.20
2018-10-05T04:04:14.318Z,20.30
2018-10-05T04:04:51.667Z,20.20
2018-10-05T04:05:29.187Z,20.20
2018-10-05T04:06:06.646Z,20.20
2018-10-05T04:06:47.819Z,20.20
2018-10-05T04:07:25.302Z,20.20
2018-10-05T04:08:02.759Z,20.20
2018-10-05T04:08:40.012Z,20.20
2018-10-05T04:09:17.480Z,20.20
2018-10-05T04:09:54.927Z,20.20
2018-10-05T04:10:32.286Z,20.20
2018-10-05T04:11:09.474Z,20.20
2018-10-05T04:12:29.542Z,20.20
2018-10-05T04:13:06.999Z,20.20
2018-10-05T04:13:44.421Z,20.20
2018-10-05T04:14:21.689Z,20.30
2018-10-05T04:14:59.242Z,20.20
2018-10-05T04:15:36.606Z,20.20
2018-10-05T04:16:13.880Z,20.20
2018-10-05T04:16:54.710Z,20.30
2018-10-05T04:17:31.962Z,20.20
2018-10-05T04:18:09.253Z,20.20
2018-10-05T04:18:46.741Z,20.20
2018-10-05T04:19:24.245Z,20.20
2018-10-05T04:20:01.788Z,20.20
2018-10-05T04:20:39.189Z,20.20
2018-10-05T04:21:16.712Z,20.20
2018-10-05T04:21:54.173Z,20.20
2018-10-05T04:22:31.590Z,20.20
2018-10-05T04:23:08.773Z,20.20
2018-10-05T04:23:46.283Z,20.20
2018-10-05T04:24:23.761Z,20.20
2018-10-05T04:25:01.201Z,20.20
2018-10-05T04:25:38.430Z,20.20
2018-10-05T04:26:15.682Z,20.20
2018-10-05T04:26:53.013Z,20.20
2018-10-05T04:27:30.481Z,20.20
2018-10-05T04:28:08.054Z,20.20
2018-10-05T04:28:45.382Z,20.20
2018-10-05T04:29:22.577Z,20.20
2018-10-05T04:29:59.835Z,20.20
2018-10-05T04:30:37.125Z,20.20
2018-10-05T04:31:14.401Z,20.20
2018-10-05T04:31:51.742Z,20.20
2018-10-05T04:32:29.265Z,20.20
2018-10-05T04:33:06.694Z,20.20
2018-10-05T04:33:44.145Z,20.20
2018-10-05T04:34:21.751Z,20.20
2018-10-05T04:34:59.172Z,20.20
2018-10-05T04:35:36.711Z,20.20
2018-10-05T04:36:14.241Z,20.20
2018-10-05T04:36:51.701Z,20.20
2018-10-05T04:37:29.220Z,20.20
2018-10-05T04:38:06.680Z,20.20
2018-10-05T04:38:44.167Z,20.20
2018-10-05T04:39:21.646Z,20.20
2018-10-05T04:39:58.820Z,20.20
2018-10-05T04:40:36.081Z,20.20
2018-10-05T04:41:13.292Z,20.20
2018-10-05T04:41:50.801Z,20.20
2018-10-05T04:42:28.257Z,20.20
2018-10-05T04:43:05.701Z,20.20
2018-10-05T04:43:42.913Z,20.20
2018-10-05T04:44:20.452Z,20.20
2018-10-05T04:44:57.872Z,20.20
2018-10-05T04:45:35.233Z,20.20
2018-10-05T04:46:12.791Z,20.20
2018-10-05T04:46:50.211Z,20.20
2018-10-05T04:47:27.652Z,20.20
2018-10-05T04:48:05.077Z,20.20
2018-10-05T04:48:42.445Z,20.20
2018-10-05T04:49:19.751Z,20.20
2018-10-05T04:49:57.257Z,20.20
2018-10-05T04:50:34.664Z,20.20
2018-10-05T04:51:12.062Z,20.20
2018-10-05T04:51:49.452Z,20.20
2018-10-05T04:52:26.777Z,20.20
2018-10-05T04:53:04.301Z,20.20
2018-10-05T04:53:41.722Z,20.20
2018-10-05T04:54:19.140Z,20.20
2018-10-05T04:54:56.433Z,20.20
2018-10-05T04:55:33.810Z,20.20
2018-10-05T04:56:11.224Z,20.20
2018-10-05T04:56:48.715Z,20.20
2018-10-05T04:57:26.193Z,20.20
2018-10-05T04:58:03.590Z,20.20
2018-10-05T04:58:41.007Z,20.20
2018-10-05T04:59:18.234Z,20.20
2018-10-05T04:59:55.768Z,20.20
2018-10-05T05:00:33.232Z,20.20
2018-10-05T05:01:10.625Z,20.20
2018-10-05T05:01:47.845Z,20.20
2018-10-05T05:02:25.227Z,20.20
2018-10-05T05:03:02.600Z,20.20
2018-10-05T05:03:39.888Z,20.20
2018-10-05T05:04:17.353Z,20.20
2018-10-05T05:04:54.612Z,20.20
2018-10-05T05:05:31.820Z,20.20
2018-10-05T05:06:09.174Z,20.20
2018-10-05T05:06:46.524Z,20.20
2018-10-05T05:07:23.787Z,20.20
2018-10-05T05:08:01.205Z,20.20
2018-10-05T05:08:38.784Z,20.20
2018-10-05T05:09:16.228Z,20.20
2018-10-05T05:09:53.735Z,20.20
2018-10-05T05:10:31.007Z,20.20
2018-10-05T05:11:13.807Z,20.20
2018-10-05T05:11:51.255Z,20.20
2018-10-05T05:12:28.668Z,20.20
2018-10-05T05:13:05.876Z,20.20
2018-10-05T05:13:43.146Z,20.20
2018-10-05T05:14:20.525Z,20.20
2018-10-05T05:14:57.843Z,20.20
2018-10-05T05:15:35.177Z,20.20
2018-10-05T05:16:12.677Z,20.20
2018-10-05T05:16:50.167Z,20.20
2018-10-05T05:17:27.547Z,20.20
2018-10-05T05:18:04.981Z,20.20
2018-10-05T05:18:42.261Z,20.20
2018-10-05T05:19:19.767Z,20.20
2018-10-05T05:19:57.228Z,20.20
2018-10-05T05:20:34.494Z,20.20
2018-10-05T05:21:12.047Z,20.20
2018-10-05T05:21:49.447Z,20.20
2018-10-05T05:22:26.967Z,20.20
2018-10-05T05:23:04.288Z,20.20
2018-10-05T05:23:41.647Z,20.20
2018-10-05T05:24:19.065Z,20.20
2018-10-05T05:24:56.538Z,20.20
2018-10-05T05:25:34.208Z,20.20
2018-10-05T05:26:11.522Z,20.20
2018-10-05T05:26:48.978Z,20.20
2018-10-05T05:27:26.377Z,20.20
2018-10-05T05:28:03.759Z,20.20
2018-10-05T05:28:41.079Z,20.20
2018-10-05T05:29:18.338Z,20.20
2018-10-05T05:29:55.559Z,20.20
2018-10-05T05:30:32.943Z,20.20
2018-10-05T05:31:10.230Z,20.20
2018-10-05T05:31:47.657Z,20.20
2018-10-05T05:32:24.849Z,20.20
2018-10-05T05:33:02.353Z,20.20
2018-10-05T05:33:43.282Z,20.20
2018-10-05T05:34:20.689Z,20.20
2018-10-05T05:34:58.143Z,20.20
2018-10-05T05:35:35.574Z,20.20
2018-10-05T05:36:12.919Z,20.20
2018-10-05T05:36:50.133Z,20.20
2018-10-05T05:37:27.369Z,20.20
2018-10-05T05:38:04.799Z,20.20
2018-10-05T05:39:23.631Z,20.20
2018-10-05T05:40:01.130Z,20.20
2018-10-05T05:40:38.619Z,20.20
2018-10-05T05:41:16.031Z,20.20
2018-10-05T05:41:53.200Z,20.20
2018-10-05T05:42:30.656Z,20.20
2018-10-05T05:43:08.142Z,20.20
2018-10-05T05:43:45.563Z,20.20
2018-10-05T05:44:23.061Z,20.20
2018-10-05T05:45:00.455Z,20.20
2018-10-05T05:45:37.852Z,20.20
2018-10-05T05:46:15.209Z,20.20
2018-10-05T05:46:52.741Z,20.20
2018-10-05T05:47:30.433Z,20.20
2018-10-05T05:48:07.977Z,20.20
2018-10-05T05:48:45.462Z,20.20
2018-10-05T05:49:22.884Z,20.20
2018-10-05T05:50:00.154Z,20.20
2018-10-05T05:50:37.524Z,20.20
2018-10-05T05:51:14.764Z,20.20
2018-10-05T05:51:52.221Z,20.20
2018-10-05T05:52:29.451Z,20.20
2018-10-05T05:53:06.653Z,20.20
2018-10-05T05:53:44.133Z,20.20
2018-10-05T05:54:21.652Z,20.20
2018-10-05T05:54:59.091Z,20.20
2018-10-05T05:55:36.349Z,20.20
2018-10-05T05:56:13.835Z,20.20
2018-10-05T05:56:51.292Z,20.20
2018-10-05T05:57:28.524Z,20.20
2018-10-05T05:58:06.136Z,20.20
2018-10-05T05:58:43.589Z,20.20
2018-10-05T05:59:20.904Z,20.20
2018-10-05T05:59:58.353Z,20.20
2018-10-05T06:00:35.636Z,20.20
2018-10-05T06:01:13.051Z,20.20
2018-10-05T06:01:50.424Z,20.20
2018-10-05T06:02:27.581Z,20.20
2018-10-05T06:03:05.155Z,20.20
2018-10-05T06:03:42.581Z,20.20
2018-10-05T06:04:19.988Z,20.20
2018-10-05T06:04:57.524Z,20.20
2018-10-05T06:05:34.819Z,20.20
2018-10-05T06:06:12.142Z,20.20
2018-10-05T06:06:49.622Z,20.20
2018-10-05T06:07:26.999Z,20.20
2018-10-05T06:08:04.355Z,20.20
2018-10-05T06:08:41.795Z,20.20
2018-10-05T06:09:18.994Z,20.20
2018-10-05T06:09:56.320Z,20.20
2018-10-05T06:10:33.752Z,20.20
2018-10-05T06:11:11.522Z,20.20
2018-10-05T06:11:49.052Z,20.20
2018-10-05T06:12:26.480Z,20.20
2018-10-05T06:13:03.839Z,20.20
2018-10-05T06:13:41.240Z,20.20
2018-10-05T06:14:18.760Z,20.20
2018-10-05T06:14:56.429Z,20.20
2018-10-05T06:15:33.775Z,20.20
2018-10-05T06:16:11.301Z,20.20
2018-10-05T06:16:48.637Z,20.20
2018-10-05T06:17:26.074Z,20.20
2018-10-05T06:18:03.349Z,20.20
2018-10-05T06:18:40.769Z,20.20
2018-10-05T06:19:18.212Z,20.20
2018-10-05T06:19:55.427Z,20.20
2018-10-05T06:20:32.643Z,20.20
2018-10-05T06:21:10.121Z,20.20
2018-10-05T06:21:47.787Z,20.20
2018-10-05T06:22:25.398Z,20.20
2018-10-05T06:23:02.657Z,20.20
2018-10-05T06:23:40.088Z,20.20
2018-10-05T06:24:17.427Z,20.20
2018-10-05T06:24:54.699Z,20.20
2018-10-05T06:25:32.220Z,20.20
2018-10-05T06:26:14.871Z,20.20
2018-10-05T06:26:52.236Z,20.20
2018-10-05T06:27:29.822Z,20.20
2018-10-05T06:28:07.286Z,20.20
2018-10-05T06:28:44.498Z,20.20
2018-10-05T06:29:21.951Z,20.30
2018-10-05T06:29:59.170Z,20.30
2018-10-05T06:30:36.422Z,20.20
2018-10-05T06:31:13.883Z,20.30
2018-10-05T06:31:55.246Z,20.20
2018-10-05T06:32:32.758Z,20.30
2018-10-05T06:33:10.296Z,20.30
2018-10-05T06:33:47.845Z,20.30
2018-10-05T06:34:25.162Z,20.30
2018-10-05T06:35:02.713Z,20.30
2018-10-05T06:35:40.096Z,20.30
2018-10-05T06:36:17.655Z,20.30
2018-10-05T06:36:54.909Z,20.30
2018-10-05T06:37:32.134Z,20.30
2018-10-05T06:38:09.635Z,20.30
2018-10-05T06:38:47.123Z,20.30
2018-10-05T06:39:24.549Z,20.30
2018-10-05T06:40:01.884Z,20.30
2018-10-05T06:40:39.124Z,20.30
2018-10-05T06:41:16.637Z,20.30
2018-10-05T06:41:54.322Z,20.30
2018-10-05T06:42:31.980Z,20.30
2018-10-05T06:43:09.507Z,20.30
2018-10-05T06:43:46.935Z,20.30
2018-10-05T06:44:24.150Z,20.30
2018-10-05T06:45:01.449Z,20.30
2018-10-05T06:45:38.723Z,20.30
2018-10-05T06:46:16.215Z,20.40
2018-10-05T06:46:53.492Z,20.40
2018-10-05T06:47:30.921Z,20.40
2018-10-05T06:48:08.351Z,20.40
2018-10-05T06:48:45.674Z,20.40
2018-10-05T06:49:23.018Z,20.40
2018-10-05T06:50:00.542Z,20.40
2018-10-05T06:50:37.931Z,20.40
2018-10-05T06:51:15.211Z,20.40
2018-10-05T06:51:52.491Z,20.40
2018-10-05T06:52:30.013Z,20.40
2018-10-05T06:53:07.400Z,20.50
2018-10-05T06:53:45.000Z,20.50
2018-10-05T06:54:22.511Z,20.50
2018-10-05T06:55:00.031Z,20.50
2018-10-05T06:55:37.451Z,20.50
2018-10-05T06:56:14.960Z,20.50
2018-10-05T06:56:52.329Z,20.50
2018-10-05T06:57:29.563Z,20.50
2018-10-05T06:58:06.859Z,20.50
2018-10-05T06:58:44.200Z,20.60
2018-10-05T06:59:21.592Z,20.60
2018-10-05T06:59:58.941Z,20.60
2018-10-05T07:00:36.159Z,20.60
2018-10-05T07:01:13.698Z,20.60
2018-10-05T07:01:51.127Z,20.60
2018-10-05T07:02:28.769Z,20.60
2018-10-05T07:03:06.182Z,20.60
2018-10-05T07:03:43.395Z,20.60
2018-10-05T07:04:20.691Z,20.60
2018-10-05T07:04:58.008Z,20.60
2018-10-05T07:05:35.432Z,20.60
2018-10-05T07:06:12.755Z,20.60
2018-10-05T07:06:50.023Z,20.60
2018-10-05T07:07:27.269Z,20.60
2018-10-05T07:08:04.935Z,20.60
2018-10-05T07:08:42.588Z,20.60
2018-10-05T07:09:20.030Z,20.60
2018-10-05T07:09:57.377Z,20.70
2018-10-05T07:10:34.872Z,20.70
2018-10-05T07:11:12.063Z,20.70
2018-10-05T07:11:49.347Z,20.70
2018-10-05T07:12:26.933Z,20.60
2018-10-05T07:13:04.406Z,20.60
2018-10-05T07:13:41.906Z,20.60
2018-10-05T07:14:19.568Z,20.60
2018-10-05T07:14:57.098Z,20.70
2018-10-05T07:15:34.476Z,20.70
2018-10-05T07:16:11.777Z,20.70
2018-10-05T07:16:49.085Z,20.70
2018-10-05T07:17:26.449Z,20.70
2018-10-05T07:18:03.819Z,20.70
2018-10-05T07:18:41.157Z,20.70
2018-10-05T07:19:18.616Z,20.70
2018-10-05T07:19:56.006Z,20.70
2018-10-05T07:20:33.497Z,20.70
2018-10-05T07:21:10.943Z,20.80
2018-10-05T07:21:48.267Z,20.80
2018-10-05T07:22:25.712Z,20.80
2018-10-05T07:23:03.216Z,20.80
2018-10-05T07:23:40.589Z,20.80
2018-10-05T07:24:18.045Z,20.80
2018-10-05T07:24:55.321Z,20.80
2018-10-05T07:25:32.767Z,20.80
2018-10-05T07:26:10.257Z,20.80
2018-10-05T07:26:47.780Z,20.80
2018-10-05T07:27:25.257Z,20.80
2018-10-05T07:28:02.574Z,20.80
2018-10-05T07:28:39.971Z,20.80
2018-10-05T07:29:17.513Z,20.80
2018-10-05T07:29:55.028Z,20.80
2018-10-05T07:30:32.499Z,20.90
2018-10-05T07:31:10.087Z,20.90
2018-10-05T07:31:51.276Z,20.90
2018-10-05T07:32:28.433Z,20.90
2018-10-05T07:33:05.652Z,20.90
2018-10-05T07:33:43.066Z,20.90
2018-10-05T07:34:20.457Z,21.00
2018-10-05T07:34:57.731Z,20.90
2018-10-05T07:35:34.920Z,21.00
2018-10-05T07:36:12.136Z,21.00
2018-10-05T07:36:52.939Z,20.90
2018-10-05T07:37:30.795Z,21.00
2018-10-05T07:38:08.294Z,20.90
2018-10-05T07:38:45.702Z,21.00
2018-10-05T07:39:23.137Z,21.00
2018-10-05T07:40:00.430Z,21.00
2018-10-05T07:40:37.831Z,21.00
2018-10-05T07:41:15.427Z,21.00
2018-10-05T07:41:52.828Z,21.00
2018-10-05T07:42:30.141Z,21.00
2018-10-05T07:43:07.420Z,21.00
2018-10-05T07:43:45.122Z,21.00
2018-10-05T07:44:22.533Z,21.10
2018-10-05T07:44:59.804Z,21.10
2018-10-05T07:45:37.128Z,21.00
2018-10-05T07:46:14.456Z,21.10
2018-10-05T07:46:51.696Z,21.10
2018-10-05T07:47:28.901Z,21.10
2018-10-05T07:48:06.154Z,21.10
2018-10-05T07:48:43.525Z,21.10
2018-10-05T07:49:21.178Z,21.10
2018-10-05T07:49:58.692Z,21.20
2018-10-05T07:50:36.077Z,21.20
2018-10-05T07:51:13.543Z,21.20
2018-10-05T07:51:50.958Z,21.30
2018-10-05T07:52:28.298Z,21.30
2018-10-05T07:53:05.538Z,21.40
2018-10-05T07:53:42.945Z,21.30
2018-10-05T07:54:20.332Z,21.40
2018-10-05T07:54:57.759Z,21.40
2018-10-05T07:55:35.267Z,21.40
2018-10-05T07:56:12.577Z,21.50
2018-10-05T07:56:49.889Z,21.50
2018-10-05T07:57:27.248Z,21.50
2018-10-05T07:58:04.699Z,21.60
2018-10-05T07:58:41.998Z,21.60
2018-10-05T07:59:19.295Z,21.60
2018-10-05T07:59:56.491Z,21.60
2018-10-05T08:00:33.828Z,21.70
2018-10-05T08:01:11.271Z,21.70
2018-10-05T08:01:48.808Z,21.70
2018-10-05T08:02:26.278Z,21.80
2018-10-05T08:03:03.689Z,21.80
2018-10-05T08:03:41.180Z,21.80
2018-10-05T08:04:18.542Z,21.80
2018-10-05T08:04:55.817Z,21.80
2018-10-05T08:05:33.269Z,21.90
2018-10-05T08:06:10.729Z,21.90
2018-10-05T08:06:47.957Z,21.90
2018-10-05T08:07:25.598Z,21.90
2018-10-05T08:08:03.030Z,21.90
2018-10-05T08:08:40.369Z,21.90
2018-10-05T08:09:17.809Z,21.90
2018-10-05T08:09:55.310Z,21.90